Terminal Aerodrome Forecast
Issued by NWS

Home | Current Version | Previous Version | Text Only | Print | Product List | Glossary Off
Versions: 1 2 3 4 5 6 7 8 9 10 11 12 13 14 15 16 17 18 19 20 21 22 23 24

000
FTUS45 KGGW 182320
TAFGDV
TAF
KGDV 182320Z 1900/1924 23009KT P6SM BKN200
     FM190900 28006KT P6SM BKN070
     FM191100 27006KT P6SM VCSH OVC080
     FM191200 27007KT P6SM OVC090=

USA.gov is the U.S. government's official web portal to all federal, state and local government web resources and services.